Hansa Marburg — LXHM — position and weather

sailwx.info

Track history (hours):
 
Tides and Currents Weather Stations Pressure Air Temp Water Temp Dewpoint Dewpoint Depression Visibility Wind Speed Wind Dir Waves Ship Positions

Hansa Marburg

Last reported at 2018-Jun-20 12:36 UTC. Time now 2018-Jun-21 10:09 UTC.
Position N 36°37' W 000°46'.

Length 175 m; draft 8.8 m.

Type: Ship (hazmat cat A). MMSI: 253161000.

Date/timePositionNaut miles runAvg speedWind from/ knotsBaromVisibWave heightAir tempDewpointWater temp
2018-Jun-20 12:36N 36°37' W 000°46'8514.9
2018-Jun-20 06:53N 37°04' E 000°54'717.3
2018-Jun-20 06:28N 37°07' E 001°03'  
2018-Jun-13 13:34N 36°13' E 023°20'318.0
2018-Jun-13 13:22N 36°16' E 023°22'25313.5
2018-Jun-12 18:37N 39°59' E 025°55'312.0
2018-Jun-12 18:24N 40°00' E 025°59'812.0
2018-Jun-12 17:44N 40°02' E 026°09'149 8.6
2018-Jun-12 00:25N 41°17' E 028°59'0 0.0
2018-Jun-11 16:31N 41°17' E 028°58'0 0.3
2018-Jun-11 16:17N 41°17' E 028°58'1 3.2
2018-Jun-11 15:57N 41°17' E 028°57'4 7.9
2018-Jun-11 15:30N 41°21' E 028°56'3 6.2
2018-Jun-11 15:00N 41°24' E 028°56'1 1.4
2018-Jun-11 14:11N 41°24' E 028°57'0 1.0
2018-Jun-11 13:52N 41°24' E 028°57'4 6.8
2018-Jun-11 13:18N 41°27' E 029°01'515.6
2018-Jun-11 13:00N 41°32' E 029°02'816.2
2018-Jun-11 12:30N 41°40' E 029°03'816.9
2018-Jun-11 12:00N 41°48' E 029°03'1018.1
2018-Jun-11 11:29N 41°58' E 029°02'918.0
2018-Jun-11 11:00N 42°06' E 029°01'918.1
2018-Jun-11 10:30N 42°15' E 028°60'1218.2
2018-Jun-11 09:52N 42°27' E 028°58'718.0
2018-Jun-11 09:30N 42°33' E 028°57'917.8
2018-Jun-11 09:00N 42°42' E 028°56'917.8
2018-Jun-11 08:31N 42°51' E 028°55'917.9
2018-Jun-11 08:00N 42°60' E 028°54'918.0
2018-Jun-11 07:30N 43°09' E 028°53'917.8
2018-Jun-11 07:00N 43°18' E 028°51'917.7
2018-Jun-11 06:30N 43°27' E 028°50'917.8
2018-Jun-11 06:00N 43°35' E 028°49'917.7
2018-Jun-11 05:31N 43°44' E 028°48'917.8
2018-Jun-11 05:00N 43°53' E 028°48'816.9
2018-Jun-11 04:31N 44°01' E 028°46'611.4
2018-Jun-11 04:01N 44°06' E 028°42'2 3.5
2018-Jun-11 03:30N 44°06' E 028°39'0 0.3
2018-Jun-11 03:00N 44°06' E 028°40'0 0.0
2018-Jun-11 02:30N 44°06' E 028°40'0 0.0
2018-Jun-11 02:00N 44°06' E 028°40'0 0.0
2018-Jun-11 01:30N 44°06' E 028°40'0 0.0
2018-Jun-11 01:00N 44°06' E 028°40'0 0.0
2018-Jun-11 00:30N 44°06' E 028°40'0 0.0
2018-Jun-11 00:00N 44°06' E 028°40'0 0.0
2018-Jun-10 23:30N 44°06' E 028°40'0 0.0
2018-Jun-10 23:00N 44°06' E 028°40'0 0.0
2018-Jun-10 22:30N 44°06' E 028°40'0 0.0
2018-Jun-10 22:00N 44°06' E 028°40'0 0.0
2018-Jun-10 21:30N 44°06' E 028°40'0 0.0
2018-Jun-10 21:00N 44°06' E 028°40'0 0.0
2018-Jun-10 20:30N 44°06' E 028°40'0 0.0
2018-Jun-10 20:00N 44°06' E 028°40'0 0.0
2018-Jun-10 19:30N 44°06' E 028°40'0 0.0
2018-Jun-10 19:00N 44°06' E 028°40'0 0.0
2018-Jun-10 18:30N 44°06' E 028°40'0 0.0
2018-Jun-10 18:00N 44°06' E 028°40'0 0.0
2018-Jun-10 17:30N 44°06' E 028°40'0 0.0
2018-Jun-10 17:00N 44°06' E 028°40'0 0.0
2018-Jun-10 16:30N 44°06' E 028°40'0 0.0
2018-Jun-10 16:00N 44°06' E 028°40'0 0.0
2018-Jun-10 15:30N 44°06' E 028°40'0 0.0
2018-Jun-10 15:00N 44°06' E 028°40'0 0.0
2018-Jun-10 14:30N 44°06' E 028°40'0 0.0
2018-Jun-10 13:30N 44°06' E 028°40'0 0.0
2018-Jun-10 13:00N 44°06' E 028°40'  
Track history (hours):
 
Tides and Currents Weather Stations Pressure Air Temp Water Temp Dewpoint Dewpoint Depression Visibility Wind Speed Wind Dir Waves Ship Positions

Hansa Marburg

Last reported at 2018-Jun-20 12:36 UTC. Time now 2018-Jun-21 10:09 UTC.
Position N 36°37' W 000°46'.

Length 175 m; draft 8.8 m.

Type: Ship (hazmat cat A). MMSI: 253161000.

Date/timePositionNaut miles runAvg speedWind from/ knotsBaromVisibWave heightAir tempDewpointWater temp
2018-Jun-20 12:36N 36°37' W 000°46'8514.9
2018-Jun-20 06:53N 37°04' E 000°54'717.3
2018-Jun-20 06:28N 37°07' E 001°03'  
2018-Jun-13 13:34N 36°13' E 023°20'318.0
2018-Jun-13 13:22N 36°16' E 023°22'25313.5
2018-Jun-12 18:37N 39°59' E 025°55'312.0
2018-Jun-12 18:24N 40°00' E 025°59'812.0
2018-Jun-12 17:44N 40°02' E 026°09'149 8.6
2018-Jun-12 00:25N 41°17' E 028°59'0 0.0
2018-Jun-11 16:31N 41°17' E 028°58'0 0.3
2018-Jun-11 16:17N 41°17' E 028°58'1 3.2
2018-Jun-11 15:57N 41°17' E 028°57'4 7.9
2018-Jun-11 15:30N 41°21' E 028°56'3 6.2
2018-Jun-11 15:00N 41°24' E 028°56'1 1.4
2018-Jun-11 14:11N 41°24' E 028°57'0 1.0
2018-Jun-11 13:52N 41°24' E 028°57'4 6.8
2018-Jun-11 13:18N 41°27' E 029°01'515.6
2018-Jun-11 13:00N 41°32' E 029°02'816.2
2018-Jun-11 12:30N 41°40' E 029°03'816.9
2018-Jun-11 12:00N 41°48' E 029°03'1018.1
2018-Jun-11 11:29N 41°58' E 029°02'918.0
2018-Jun-11 11:00N 42°06' E 029°01'918.1
2018-Jun-11 10:30N 42°15' E 028°60'1218.2
2018-Jun-11 09:52N 42°27' E 028°58'718.0
2018-Jun-11 09:30N 42°33' E 028°57'917.8
2018-Jun-11 09:00N 42°42' E 028°56'917.8
2018-Jun-11 08:31N 42°51' E 028°55'917.9
2018-Jun-11 08:00N 42°60' E 028°54'918.0
2018-Jun-11 07:30N 43°09' E 028°53'917.8
2018-Jun-11 07:00N 43°18' E 028°51'917.7
2018-Jun-11 06:30N 43°27' E 028°50'917.8
2018-Jun-11 06:00N 43°35' E 028°49'917.7
2018-Jun-11 05:31N 43°44' E 028°48'917.8
2018-Jun-11 05:00N 43°53' E 028°48'816.9
2018-Jun-11 04:31N 44°01' E 028°46'611.4
2018-Jun-11 04:01N 44°06' E 028°42'2 3.5
2018-Jun-11 03:30N 44°06' E 028°39'0 0.3
2018-Jun-11 03:00N 44°06' E 028°40'0 0.0
2018-Jun-11 02:30N 44°06' E 028°40'0 0.0
2018-Jun-11 02:00N 44°06' E 028°40'0 0.0
2018-Jun-11 01:30N 44°06' E 028°40'0 0.0
2018-Jun-11 01:00N 44°06' E 028°40'0 0.0
2018-Jun-11 00:30N 44°06' E 028°40'0 0.0
2018-Jun-11 00:00N 44°06' E 028°40'0 0.0
2018-Jun-10 23:30N 44°06' E 028°40'0 0.0
2018-Jun-10 23:00N 44°06' E 028°40'0 0.0
2018-Jun-10 22:30N 44°06' E 028°40'0 0.0
2018-Jun-10 22:00N 44°06' E 028°40'0 0.0
2018-Jun-10 21:30N 44°06' E 028°40'0 0.0
2018-Jun-10 21:00N 44°06' E 028°40'0 0.0
2018-Jun-10 20:30N 44°06' E 028°40'0 0.0
2018-Jun-10 20:00N 44°06' E 028°40'0 0.0
2018-Jun-10 19:30N 44°06' E 028°40'0 0.0
2018-Jun-10 19:00N 44°06' E 028°40'0 0.0
2018-Jun-10 18:30N 44°06' E 028°40'0 0.0
2018-Jun-10 18:00N 44°06' E 028°40'0 0.0
2018-Jun-10 17:30N 44°06' E 028°40'0 0.0
2018-Jun-10 17:00N 44°06' E 028°40'0 0.0
2018-Jun-10 16:30N 44°06' E 028°40'0 0.0
2018-Jun-10 16:00N 44°06' E 028°40'0 0.0
2018-Jun-10 15:30N 44°06' E 028°40'0 0.0
2018-Jun-10 15:00N 44°06' E 028°40'0 0.0
2018-Jun-10 14:30N 44°06' E 028°40'0 0.0
2018-Jun-10 13:30N 44°06' E 028°40'0 0.0
2018-Jun-10 13:00N 44°06' E 028°40'  

Dump ship's entire track history